sensor_id;sensor_type;location;lat;lon;timestamp;temperature;humidity
46139;DHT22;32398;49.112;8.598;2023-12-20T00:02:07;4.90;99.90
46139;DHT22;32398;49.112;8.598;2023-12-20T00:04:33;4.90;99.90
46139;DHT22;32398;49.112;8.598;2023-12-20T00:07:00;4.90;99.90
46139;DHT22;32398;49.112;8.598;2023-12-20T00:09:27;4.90;99.90
46139;DHT22;32398;49.112;8.598;2023-12-20T00:11:53;4.90;99.90
46139;DHT22;32398;49.112;8.598;2023-12-20T00:14:20;4.90;99.90
46139;DHT22;32398;49.112;8.598;2023-12-20T00:16:46;4.90;99.90
46139;DHT22;32398;49.112;8.598;2023-12-20T00:19:14;4.90;99.90
46139;DHT22;32398;49.112;8.598;2023-12-20T00:21:41;4.90;99.90
46139;DHT22;32398;49.112;8.598;2023-12-20T00:24:07;4.90;99.90
46139;DHT22;32398;49.112;8.598;2023-12-20T00:26:34;4.90;99.90
46139;DHT22;32398;49.112;8.598;2023-12-20T00:29:01;4.90;99.90
46139;DHT22;32398;49.112;8.598;2023-12-20T00:31:27;4.90;99.90
46139;DHT22;32398;49.112;8.598;2023-12-20T00:33:54;4.90;99.90
46139;DHT22;32398;49.112;8.598;2023-12-20T00:36:23;4.90;99.90
46139;DHT22;32398;49.112;8.598;2023-12-20T00:38:49;4.90;99.90
46139;DHT22;32398;49.112;8.598;2023-12-20T00:41:16;4.90;99.90
46139;DHT22;32398;49.112;8.598;2023-12-20T00:43:43;4.90;99.90
46139;DHT22;32398;49.112;8.598;2023-12-20T00:46:10;4.90;99.90
46139;DHT22;32398;49.112;8.598;2023-12-20T00:48:36;4.90;99.90
46139;DHT22;32398;49.112;8.598;2023-12-20T00:51:03;4.90;99.90
46139;DHT22;32398;49.112;8.598;2023-12-20T00:53:31;4.90;99.90
46139;DHT22;32398;49.112;8.598;2023-12-20T00:55:57;4.90;99.90
46139;DHT22;32398;49.112;8.598;2023-12-20T00:58:24;4.90;99.90
46139;DHT22;32398;49.112;8.598;2023-12-20T01:00:51;4.90;99.90
46139;DHT22;32398;49.112;8.598;2023-12-20T01:03:19;4.90;99.90
46139;DHT22;32398;49.112;8.598;2023-12-20T01:05:45;5.00;99.90
46139;DHT22;32398;49.112;8.598;2023-12-20T01:08:12;4.90;99.90
46139;DHT22;32398;49.112;8.598;2023-12-20T01:10:40;4.90;99.90
46139;DHT22;32398;49.112;8.598;2023-12-20T01:13:06;4.90;99.90
46139;DHT22;32398;49.112;8.598;2023-12-20T01:15:34;4.90;99.90
46139;DHT22;32398;49.112;8.598;2023-12-20T01:18:00;4.90;99.90
46139;DHT22;32398;49.112;8.598;2023-12-20T01:20:27;4.90;99.90
46139;DHT22;32398;49.112;8.598;2023-12-20T01:22:54;4.90;99.90
46139;DHT22;32398;49.112;8.598;2023-12-20T01:25:20;4.90;99.90
46139;DHT22;32398;49.112;8.598;2023-12-20T01:27:48;4.90;99.90
46139;DHT22;32398;49.112;8.598;2023-12-20T01:30:15;4.90;99.90
46139;DHT22;32398;49.112;8.598;2023-12-20T01:32:41;4.90;99.90
46139;DHT22;32398;49.112;8.598;2023-12-20T01:35:08;4.90;99.90
46139;DHT22;32398;49.112;8.598;2023-12-20T01:37:34;5.00;99.90
46139;DHT22;32398;49.112;8.598;2023-12-20T01:40:01;4.90;99.90
46139;DHT22;32398;49.112;8.598;2023-12-20T01:42:28;5.00;99.90
46139;DHT22;32398;49.112;8.598;2023-12-20T01:44:56;4.90;99.90
46139;DHT22;32398;49.112;8.598;2023-12-20T01:47:22;5.00;99.90
46139;DHT22;32398;49.112;8.598;2023-12-20T01:49:49;4.90;99.90
46139;DHT22;32398;49.112;8.598;2023-12-20T01:52:16;5.00;99.90
46139;DHT22;32398;49.112;8.598;2023-12-20T01:54:43;5.00;99.90
46139;DHT22;32398;49.112;8.598;2023-12-20T01:57:09;5.00;99.90
46139;DHT22;32398;49.112;8.598;2023-12-20T01:59:37;5.00;99.90
46139;DHT22;32398;49.112;8.598;2023-12-20T02:02:07;5.00;99.90
46139;DHT22;32398;49.112;8.598;2023-12-20T02:04:33;5.00;99.90
46139;DHT22;32398;49.112;8.598;2023-12-20T02:07:00;5.00;99.90
46139;DHT22;32398;49.112;8.598;2023-12-20T02:09:27;5.00;99.90
46139;DHT22;32398;49.112;8.598;2023-12-20T02:11:54;5.00;99.90
46139;DHT22;32398;49.112;8.598;2023-12-20T02:14:20;5.00;99.90
46139;DHT22;32398;49.112;8.598;2023-12-20T02:16:47;5.00;99.90
46139;DHT22;32398;49.112;8.598;2023-12-20T02:19:15;5.00;99.90
46139;DHT22;32398;49.112;8.598;2023-12-20T02:21:43;5.00;99.90
46139;DHT22;32398;49.112;8.598;2023-12-20T02:24:09;5.00;99.90
46139;DHT22;32398;49.112;8.598;2023-12-20T02:26:36;5.00;99.90
46139;DHT22;32398;49.112;8.598;2023-12-20T02:29:02;5.00;99.90
46139;DHT22;32398;49.112;8.598;2023-12-20T02:31:29;5.00;99.90
46139;DHT22;32398;49.112;8.598;2023-12-20T02:33:56;5.00;99.90
46139;DHT22;32398;49.112;8.598;2023-12-20T02:36:22;5.00;99.90
46139;DHT22;32398;49.112;8.598;2023-12-20T02:38:50;5.00;99.90
46139;DHT22;32398;49.112;8.598;2023-12-20T02:41:17;5.00;99.90
46139;DHT22;32398;49.112;8.598;2023-12-20T02:43:43;5.00;99.90
46139;DHT22;32398;49.112;8.598;2023-12-20T02:46:10;5.00;99.90
46139;DHT22;32398;49.112;8.598;2023-12-20T02:48:36;5.00;99.90
46139;DHT22;32398;49.112;8.598;2023-12-20T02:51:03;5.00;99.90
46139;DHT22;32398;49.112;8.598;2023-12-20T02:53:29;5.00;99.90
46139;DHT22;32398;49.112;8.598;2023-12-20T02:55:58;5.00;99.90
46139;DHT22;32398;49.112;8.598;2023-12-20T02:58:24;5.00;99.90
46139;DHT22;32398;49.112;8.598;2023-12-20T03:00:51;5.00;99.90
46139;DHT22;32398;49.112;8.598;2023-12-20T03:03:17;5.00;99.90
46139;DHT22;32398;49.112;8.598;2023-12-20T03:05:44;5.00;99.90
46139;DHT22;32398;49.112;8.598;2023-12-20T03:08:11;5.00;99.90
46139;DHT22;32398;49.112;8.598;2023-12-20T03:10:37;5.00;99.90
46139;DHT22;32398;49.112;8.598;2023-12-20T03:13:05;5.00;99.90
46139;DHT22;32398;49.112;8.598;2023-12-20T03:15:32;5.00;99.90
46139;DHT22;32398;49.112;8.598;2023-12-20T03:17:59;5.00;99.90
46139;DHT22;32398;49.112;8.598;2023-12-20T03:20:25;5.00;99.90
46139;DHT22;32398;49.112;8.598;2023-12-20T03:22:52;5.00;99.90
46139;DHT22;32398;49.112;8.598;2023-12-20T03:25:18;5.10;99.90
46139;DHT22;32398;49.112;8.598;2023-12-20T03:27:45;5.10;99.90
46139;DHT22;32398;49.112;8.598;2023-12-20T03:30:13;5.10;99.90
46139;DHT22;32398;49.112;8.598;2023-12-20T03:32:40;5.00;99.90
46139;DHT22;32398;49.112;8.598;2023-12-20T03:35:06;5.00;99.90
46139;DHT22;32398;49.112;8.598;2023-12-20T03:37:33;5.10;99.90
46139;DHT22;32398;49.112;8.598;2023-12-20T03:39:59;5.10;99.90
46139;DHT22;32398;49.112;8.598;2023-12-20T03:42:26;5.00;99.90
46139;DHT22;32398;49.112;8.598;2023-12-20T03:44:52;5.10;99.90
46139;DHT22;32398;49.112;8.598;2023-12-20T03:47:20;5.10;99.90
46139;DHT22;32398;49.112;8.598;2023-12-20T03:49:47;5.00;99.90
46139;DHT22;32398;49.112;8.598;2023-12-20T03:52:13;5.10;99.90
46139;DHT22;32398;49.112;8.598;2023-12-20T03:54:40;5.10;99.90
46139;DHT22;32398;49.112;8.598;2023-12-20T03:57:07;5.10;99.90
46139;DHT22;32398;49.112;8.598;2023-12-20T03:59:34;5.10;99.90
46139;DHT22;32398;49.112;8.598;2023-12-20T04:02:01;5.10;99.90
46139;DHT22;32398;49.112;8.598;2023-12-20T04:04:29;5.10;99.90
46139;DHT22;32398;49.112;8.598;2023-12-20T04:06:55;5.10;99.90
46139;DHT22;32398;49.112;8.598;2023-12-20T04:09:22;5.10;99.90
46139;DHT22;32398;49.112;8.598;2023-12-20T04:11:48;5.10;99.90
46139;DHT22;32398;49.112;8.598;2023-12-20T04:14:15;5.10;99.90
46139;DHT22;32398;49.112;8.598;2023-12-20T04:16:41;5.10;99.90
46139;DHT22;32398;49.112;8.598;2023-12-20T04:19:08;5.10;99.90
46139;DHT22;32398;49.112;8.598;2023-12-20T04:21:36;5.10;99.90
46139;DHT22;32398;49.112;8.598;2023-12-20T04:24:02;5.10;99.90
46139;DHT22;32398;49.112;8.598;2023-12-20T04:26:29;5.10;99.90
46139;DHT22;32398;49.112;8.598;2023-12-20T04:28:55;5.10;99.90
46139;DHT22;32398;49.112;8.598;2023-12-20T04:31:22;5.10;99.90
46139;DHT22;32398;49.112;8.598;2023-12-20T04:33:49;5.10;99.90
46139;DHT22;32398;49.112;8.598;2023-12-20T04:36:15;5.10;99.90
46139;DHT22;32398;49.112;8.598;2023-12-20T04:38:43;5.10;99.90
46139;DHT22;32398;49.112;8.598;2023-12-20T04:41:10;5.10;99.90
46139;DHT22;32398;49.112;8.598;2023-12-20T04:43:36;5.10;99.90
46139;DHT22;32398;49.112;8.598;2023-12-20T04:46:03;5.10;99.90
46139;DHT22;32398;49.112;8.598;2023-12-20T04:48:29;5.20;99.90
46139;DHT22;32398;49.112;8.598;2023-12-20T04:50:56;5.10;99.90
46139;DHT22;32398;49.112;8.598;2023-12-20T04:53:22;5.10;99.90
46139;DHT22;32398;49.112;8.598;2023-12-20T04:55:50;5.10;99.90
46139;DHT22;32398;49.112;8.598;2023-12-20T04:58:17;5.20;99.90
46139;DHT22;32398;49.112;8.598;2023-12-20T05:00:43;5.10;99.90
46139;DHT22;32398;49.112;8.598;2023-12-20T05:03:10;5.10;99.90
46139;DHT22;32398;49.112;8.598;2023-12-20T05:05:37;5.10;99.90
46139;DHT22;32398;49.112;8.598;2023-12-20T05:08:04;5.20;99.90
46139;DHT22;32398;49.112;8.598;2023-12-20T05:10:31;5.10;99.90
46139;DHT22;32398;49.112;8.598;2023-12-20T05:12:58;5.10;99.90
46139;DHT22;32398;49.112;8.598;2023-12-20T05:15:25;5.10;99.90
46139;DHT22;32398;49.112;8.598;2023-12-20T05:17:52;5.20;99.90
46139;DHT22;32398;49.112;8.598;2023-12-20T05:20:18;5.20;99.90
46139;DHT22;32398;49.112;8.598;2023-12-20T05:22:45;5.20;99.90
46139;DHT22;32398;49.112;8.598;2023-12-20T05:25:12;5.20;99.90
46139;DHT22;32398;49.112;8.598;2023-12-20T05:27:39;5.20;99.90
46139;DHT22;32398;49.112;8.598;2023-12-20T05:30:07;5.20;99.90
46139;DHT22;32398;49.112;8.598;2023-12-20T05:32:34;5.20;99.90
46139;DHT22;32398;49.112;8.598;2023-12-20T05:35:00;5.10;99.90
46139;DHT22;32398;49.112;8.598;2023-12-20T05:37:27;5.20;99.90
46139;DHT22;32398;49.112;8.598;2023-12-20T05:39:54;5.20;99.90
46139;DHT22;32398;49.112;8.598;2023-12-20T05:42:20;5.20;99.90
46139;DHT22;32398;49.112;8.598;2023-12-20T05:44:47;5.20;99.90
46139;DHT22;32398;49.112;8.598;2023-12-20T05:47:15;5.20;99.90
46139;DHT22;32398;49.112;8.598;2023-12-20T05:49:43;5.20;99.90
46139;DHT22;32398;49.112;8.598;2023-12-20T05:52:09;5.20;99.90
46139;DHT22;32398;49.112;8.598;2023-12-20T05:54:36;5.20;99.90
46139;DHT22;32398;49.112;8.598;2023-12-20T05:57:02;5.20;99.90
46139;DHT22;32398;49.112;8.598;2023-12-20T05:59:29;5.20;99.90
46139;DHT22;32398;49.112;8.598;2023-12-20T06:01:56;5.20;99.90
46139;DHT22;32398;49.112;8.598;2023-12-20T06:04:23;5.20;99.90
46139;DHT22;32398;49.112;8.598;2023-12-20T06:06:50;5.20;99.90
46139;DHT22;32398;49.112;8.598;2023-12-20T06:09:16;5.20;99.90
46139;DHT22;32398;49.112;8.598;2023-12-20T06:11:43;5.20;99.90
46139;DHT22;32398;49.112;8.598;2023-12-20T06:14:10;5.20;99.90
46139;DHT22;32398;49.112;8.598;2023-12-20T06:16:36;5.20;99.90
46139;DHT22;32398;49.112;8.598;2023-12-20T06:19:03;5.20;99.90
46139;DHT22;32398;49.112;8.598;2023-12-20T06:21:30;5.20;99.90
46139;DHT22;32398;49.112;8.598;2023-12-20T06:23:58;5.20;99.90
46139;DHT22;32398;49.112;8.598;2023-12-20T06:26:25;5.20;99.90
46139;DHT22;32398;49.112;8.598;2023-12-20T06:28:51;5.30;99.90
46139;DHT22;32398;49.112;8.598;2023-12-20T06:31:18;5.20;99.90
46139;DHT22;32398;49.112;8.598;2023-12-20T06:33:44;5.20;99.90
46139;DHT22;32398;49.112;8.598;2023-12-20T06:36:11;5.20;99.90
46139;DHT22;32398;49.112;8.598;2023-12-20T06:38:39;5.20;99.90
46139;DHT22;32398;49.112;8.598;2023-12-20T06:41:07;5.20;99.90
46139;DHT22;32398;49.112;8.598;2023-12-20T06:43:34;5.20;99.90
46139;DHT22;32398;49.112;8.598;2023-12-20T06:46:00;5.20;99.90
46139;DHT22;32398;49.112;8.598;2023-12-20T06:48:27;5.20;99.90
46139;DHT22;32398;49.112;8.598;2023-12-20T06:50:53;5.30;99.90
46139;DHT22;32398;49.112;8.598;2023-12-20T06:53:20;5.30;99.90
46139;DHT22;32398;49.112;8.598;2023-12-20T06:55:48;5.30;99.90
46139;DHT22;32398;49.112;8.598;2023-12-20T06:58:14;5.30;99.90
46139;DHT22;32398;49.112;8.598;2023-12-20T07:00:41;5.30;99.90
46139;DHT22;32398;49.112;8.598;2023-12-20T07:03:08;5.30;99.90
46139;DHT22;32398;49.112;8.598;2023-12-20T07:05:35;5.30;99.90
46139;DHT22;32398;49.112;8.598;2023-12-20T07:08:02;5.30;99.90
46139;DHT22;32398;49.112;8.598;2023-12-20T07:10:30;5.30;99.90
46139;DHT22;32398;49.112;8.598;2023-12-20T07:12:58;5.30;99.90
46139;DHT22;32398;49.112;8.598;2023-12-20T07:15:24;5.30;99.90
46139;DHT22;32398;49.112;8.598;2023-12-20T07:17:52;5.30;99.90
46139;DHT22;32398;49.112;8.598;2023-12-20T07:20:18;5.30;99.90
46139;DHT22;32398;49.112;8.598;2023-12-20T07:22:45;5.30;99.90
46139;DHT22;32398;49.112;8.598;2023-12-20T07:25:11;5.30;99.90
46139;DHT22;32398;49.112;8.598;2023-12-20T07:27:38;5.30;99.90
46139;DHT22;32398;49.112;8.598;2023-12-20T07:30:06;5.40;99.90
46139;DHT22;32398;49.112;8.598;2023-12-20T07:32:33;5.50;99.90
46139;DHT22;32398;49.112;8.598;2023-12-20T07:35:00;5.50;99.90
46139;DHT22;32398;49.112;8.598;2023-12-20T07:37:26;5.60;99.90
46139;DHT22;32398;49.112;8.598;2023-12-20T07:39:53;5.60;99.90
46139;DHT22;32398;49.112;8.598;2023-12-20T07:42:19;5.60;99.90
46139;DHT22;32398;49.112;8.598;2023-12-20T07:44:47;5.70;99.90
46139;DHT22;32398;49.112;8.598;2023-12-20T07:47:14;5.70;99.90
46139;DHT22;32398;49.112;8.598;2023-12-20T07:49:44;5.70;99.90
46139;DHT22;32398;49.112;8.598;2023-12-20T07:52:11;5.70;99.90
46139;DHT22;32398;49.112;8.598;2023-12-20T07:54:38;5.70;99.90
46139;DHT22;32398;49.112;8.598;2023-12-20T07:57:04;5.80;99.90
46139;DHT22;32398;49.112;8.598;2023-12-20T07:59:31;5.80;99.90
46139;DHT22;32398;49.112;8.598;2023-12-20T08:01:57;5.80;99.90
46139;DHT22;32398;49.112;8.598;2023-12-20T08:04:25;5.80;99.90
46139;DHT22;32398;49.112;8.598;2023-12-20T08:06:52;5.80;99.90
46139;DHT22;32398;49.112;8.598;2023-12-20T08:09:19;5.80;99.90
46139;DHT22;32398;49.112;8.598;2023-12-20T08:11:45;5.80;99.90
46139;DHT22;32398;49.112;8.598;2023-12-20T08:14:12;5.80;99.90
46139;DHT22;32398;49.112;8.598;2023-12-20T08:16:38;5.80;99.90
46139;DHT22;32398;49.112;8.598;2023-12-20T08:19:05;5.80;99.90
46139;DHT22;32398;49.112;8.598;2023-12-20T08:21:33;5.90;99.90
46139;DHT22;32398;49.112;8.598;2023-12-20T08:23:59;5.80;99.90
46139;DHT22;32398;49.112;8.598;2023-12-20T08:26:26;5.80;99.90
46139;DHT22;32398;49.112;8.598;2023-12-20T08:28:53;5.80;99.90
46139;DHT22;32398;49.112;8.598;2023-12-20T08:31:19;5.80;99.90
46139;DHT22;32398;49.112;8.598;2023-12-20T08:33:46;5.80;99.90
46139;DHT22;32398;49.112;8.598;2023-12-20T08:36:13;5.80;99.90
46139;DHT22;32398;49.112;8.598;2023-12-20T08:38:41;5.80;99.90
46139;DHT22;32398;49.112;8.598;2023-12-20T08:41:08;5.80;99.90
46139;DHT22;32398;49.112;8.598;2023-12-20T08:43:34;5.80;99.90
46139;DHT22;32398;49.112;8.598;2023-12-20T08:46:01;5.80;99.90
46139;DHT22;32398;49.112;8.598;2023-12-20T08:48:28;5.80;99.90
46139;DHT22;32398;49.112;8.598;2023-12-20T08:50:54;5.80;99.90
46139;DHT22;32398;49.112;8.598;2023-12-20T08:53:21;5.80;99.90
46139;DHT22;32398;49.112;8.598;2023-12-20T08:55:49;5.70;99.90
46139;DHT22;32398;49.112;8.598;2023-12-20T08:58:15;5.80;99.90
46139;DHT22;32398;49.112;8.598;2023-12-20T09:00:42;5.70;99.90
46139;DHT22;32398;49.112;8.598;2023-12-20T09:03:09;5.70;99.90
46139;DHT22;32398;49.112;8.598;2023-12-20T09:05:35;5.70;99.90
46139;DHT22;32398;49.112;8.598;2023-12-20T09:08:02;5.70;99.90
46139;DHT22;32398;49.112;8.598;2023-12-20T09:10:29;5.70;99.90
46139;DHT22;32398;49.112;8.598;2023-12-20T09:12:57;5.70;99.90
46139;DHT22;32398;49.112;8.598;2023-12-20T09:15:23;5.70;99.90
46139;DHT22;32398;49.112;8.598;2023-12-20T09:17:50;5.70;99.90
46139;DHT22;32398;49.112;8.598;2023-12-20T09:20:17;5.70;99.90
46139;DHT22;32398;49.112;8.598;2023-12-20T09:22:44;5.70;99.90
46139;DHT22;32398;49.112;8.598;2023-12-20T09:25:10;5.70;99.90
46139;DHT22;32398;49.112;8.598;2023-12-20T09:27:39;5.70;99.90
46139;DHT22;32398;49.112;8.598;2023-12-20T09:30:07;5.70;99.90
46139;DHT22;32398;49.112;8.598;2023-12-20T09:32:34;5.60;99.90
46139;DHT22;32398;49.112;8.598;2023-12-20T09:35:00;5.60;99.90
46139;DHT22;32398;49.112;8.598;2023-12-20T09:37:27;5.60;99.90
46139;DHT22;32398;49.112;8.598;2023-12-20T09:39:54;5.60;99.90
46139;DHT22;32398;49.112;8.598;2023-12-20T09:42:21;5.60;99.90
46139;DHT22;32398;49.112;8.598;2023-12-20T09:44:50;5.60;99.90
46139;DHT22;32398;49.112;8.598;2023-12-20T09:47:18;5.60;99.90
46139;DHT22;32398;49.112;8.598;2023-12-20T09:49:46;5.60;99.90
46139;DHT22;32398;49.112;8.598;2023-12-20T09:52:12;5.60;99.90
46139;DHT22;32398;49.112;8.598;2023-12-20T09:54:39;5.60;99.90
46139;DHT22;32398;49.112;8.598;2023-12-20T09:57:06;5.60;99.90
46139;DHT22;32398;49.112;8.598;2023-12-20T09:59:33;5.60;99.90
46139;DHT22;32398;49.112;8.598;2023-12-20T10:01:59;5.60;99.90
46139;DHT22;32398;49.112;8.598;2023-12-20T10:04:30;5.60;99.90
46139;DHT22;32398;49.112;8.598;2023-12-20T10:07:01;5.60;99.90
46139;DHT22;32398;49.112;8.598;2023-12-20T10:09:29;5.60;99.90
46139;DHT22;32398;49.112;8.598;2023-12-20T10:11:57;5.60;99.90
46139;DHT22;32398;49.112;8.598;2023-12-20T10:14:24;5.60;99.90
46139;DHT22;32398;49.112;8.598;2023-12-20T10:16:50;5.60;99.90
46139;DHT22;32398;49.112;8.598;2023-12-20T10:19:17;5.60;99.90
46139;DHT22;32398;49.112;8.598;2023-12-20T10:21:45;5.60;99.90
46139;DHT22;32398;49.112;8.598;2023-12-20T10:24:16;5.60;99.90
46139;DHT22;32398;49.112;8.598;2023-12-20T10:26:42;5.60;99.90
46139;DHT22;32398;49.112;8.598;2023-12-20T10:29:09;5.60;99.90
46139;DHT22;32398;49.112;8.598;2023-12-20T10:31:36;5.60;99.90
46139;DHT22;32398;49.112;8.598;2023-12-20T10:34:04;5.60;99.90
46139;DHT22;32398;49.112;8.598;2023-12-20T10:36:31;5.60;99.90
46139;DHT22;32398;49.112;8.598;2023-12-20T10:38:59;5.60;99.90
46139;DHT22;32398;49.112;8.598;2023-12-20T10:41:27;5.60;99.90
46139;DHT22;32398;49.112;8.598;2023-12-20T10:43:58;5.60;99.90
46139;DHT22;32398;49.112;8.598;2023-12-20T10:46:25;5.70;99.90
46139;DHT22;32398;49.112;8.598;2023-12-20T10:48:53;5.60;99.90
46139;DHT22;32398;49.112;8.598;2023-12-20T10:51:20;5.60;99.90
46139;DHT22;32398;49.112;8.598;2023-12-20T10:53:48;5.60;99.90
46139;DHT22;32398;49.112;8.598;2023-12-20T10:56:18;5.70;99.90
46139;DHT22;32398;49.112;8.598;2023-12-20T10:58:46;5.70;99.90
46139;DHT22;32398;49.112;8.598;2023-12-20T11:01:13;5.60;99.90
46139;DHT22;32398;49.112;8.598;2023-12-20T11:03:42;5.70;99.90
46139;DHT22;32398;49.112;8.598;2023-12-20T11:06:10;5.60;99.90
46139;DHT22;32398;49.112;8.598;2023-12-20T11:08:39;7.00;99.90
46139;DHT22;32398;49.112;8.598;2023-12-20T11:11:11;5.70;99.90
46139;DHT22;32398;49.112;8.598;2023-12-20T11:13:43;5.70;99.90
46139;DHT22;32398;49.112;8.598;2023-12-20T11:16:10;5.70;99.90
46139;DHT22;32398;49.112;8.598;2023-12-20T11:18:37;5.70;99.90
46139;DHT22;32398;49.112;8.598;2023-12-20T11:21:06;5.70;99.90
46139;DHT22;32398;49.112;8.598;2023-12-20T11:23:33;5.70;99.90
46139;DHT22;32398;49.112;8.598;2023-12-20T11:26:00;5.70;99.90
46139;DHT22;32398;49.112;8.598;2023-12-20T11:28:27;5.70;99.90
46139;DHT22;32398;49.112;8.598;2023-12-20T11:30:56;5.70;99.90
46139;DHT22;32398;49.112;8.598;2023-12-20T11:33:25;5.80;99.90
46139;DHT22;32398;49.112;8.598;2023-12-20T11:35:52;5.80;99.90
46139;DHT22;32398;49.112;8.598;2023-12-20T11:38:21;5.70;99.90
46139;DHT22;32398;49.112;8.598;2023-12-20T11:40:48;5.80;99.90
46139;DHT22;32398;49.112;8.598;2023-12-20T11:43:29;5.80;99.90
46139;DHT22;32398;49.112;8.598;2023-12-20T11:46:00;5.80;99.90
46139;DHT22;32398;49.112;8.598;2023-12-20T11:48:28;5.80;99.90
46139;DHT22;32398;49.112;8.598;2023-12-20T11:50:56;5.80;99.90
46139;DHT22;32398;49.112;8.598;2023-12-20T11:53:23;5.80;99.90
46139;DHT22;32398;49.112;8.598;2023-12-20T11:55:49;5.80;99.90
46139;DHT22;32398;49.112;8.598;2023-12-20T11:58:16;5.80;99.90
46139;DHT22;32398;49.112;8.598;2023-12-20T12:00:43;5.80;99.90
46139;DHT22;32398;49.112;8.598;2023-12-20T12:03:14;5.80;99.90
46139;DHT22;32398;49.112;8.598;2023-12-20T12:05:40;5.80;99.90
46139;DHT22;32398;49.112;8.598;2023-12-20T12:08:07;5.80;99.90
46139;DHT22;32398;49.112;8.598;2023-12-20T12:10:34;5.80;99.90
46139;DHT22;32398;49.112;8.598;2023-12-20T12:13:00;5.80;99.90
46139;DHT22;32398;49.112;8.598;2023-12-20T12:15:27;5.80;99.90
46139;DHT22;32398;49.112;8.598;2023-12-20T12:17:53;5.80;99.90
46139;DHT22;32398;49.112;8.598;2023-12-20T12:20:22;5.80;99.90
46139;DHT22;32398;49.112;8.598;2023-12-20T12:22:57;5.80;99.90
46139;DHT22;32398;49.112;8.598;2023-12-20T12:25:23;5.80;99.90
46139;DHT22;32398;49.112;8.598;2023-12-20T12:27:50;5.80;99.90
46139;DHT22;32398;49.112;8.598;2023-12-20T12:30:17;5.80;99.90
46139;DHT22;32398;49.112;8.598;2023-12-20T12:32:43;5.90;99.90
46139;DHT22;32398;49.112;8.598;2023-12-20T12:35:10;5.90;99.90
46139;DHT22;32398;49.112;8.598;2023-12-20T12:37:38;5.90;99.90
46139;DHT22;32398;49.112;8.598;2023-12-20T12:40:06;5.90;99.90
46139;DHT22;32398;49.112;8.598;2023-12-20T12:42:33;5.90;99.90
46139;DHT22;32398;49.112;8.598;2023-12-20T12:44:59;5.90;99.90
46139;DHT22;32398;49.112;8.598;2023-12-20T12:47:26;5.90;99.90
46139;DHT22;32398;49.112;8.598;2023-12-20T12:49:52;5.90;99.90
46139;DHT22;32398;49.112;8.598;2023-12-20T12:52:19;5.90;99.90
46139;DHT22;32398;49.112;8.598;2023-12-20T12:54:47;5.90;99.90
46139;DHT22;32398;49.112;8.598;2023-12-20T12:57:14;5.90;99.90
46139;DHT22;32398;49.112;8.598;2023-12-20T12:59:40;5.90;99.90
46139;DHT22;32398;49.112;8.598;2023-12-20T13:02:07;5.90;99.90
46139;DHT22;32398;49.112;8.598;2023-12-20T13:04:34;5.90;99.90
46139;DHT22;32398;49.112;8.598;2023-12-20T13:07:00;5.90;99.90
46139;DHT22;32398;49.112;8.598;2023-12-20T13:09:27;5.90;99.90
46139;DHT22;32398;49.112;8.598;2023-12-20T13:11:55;5.90;99.90
46139;DHT22;32398;49.112;8.598;2023-12-20T13:14:22;5.90;99.90
46139;DHT22;32398;49.112;8.598;2023-12-20T13:16:48;5.90;99.90
46139;DHT22;32398;49.112;8.598;2023-12-20T13:19:15;5.90;99.90
46139;DHT22;32398;49.112;8.598;2023-12-20T13:21:41;5.90;99.90
46139;DHT22;32398;49.112;8.598;2023-12-20T13:24:08;5.90;99.90
46139;DHT22;32398;49.112;8.598;2023-12-20T13:26:34;5.90;99.90
46139;DHT22;32398;49.112;8.598;2023-12-20T13:29:02;5.90;99.90
46139;DHT22;32398;49.112;8.598;2023-12-20T13:31:29;5.90;99.90
46139;DHT22;32398;49.112;8.598;2023-12-20T13:33:56;5.90;99.90
46139;DHT22;32398;49.112;8.598;2023-12-20T13:36:23;5.90;99.90
46139;DHT22;32398;49.112;8.598;2023-12-20T13:38:49;5.90;99.90
46139;DHT22;32398;49.112;8.598;2023-12-20T13:41:16;5.90;99.90
46139;DHT22;32398;49.112;8.598;2023-12-20T13:43:42;5.90;99.90
46139;DHT22;32398;49.112;8.598;2023-12-20T13:46:10;5.90;99.90
46139;DHT22;32398;49.112;8.598;2023-12-20T13:48:37;5.90;99.90
46139;DHT22;32398;49.112;8.598;2023-12-20T13:51:03;5.90;99.90
46139;DHT22;32398;49.112;8.598;2023-12-20T13:53:31;5.90;99.90
46139;DHT22;32398;49.112;8.598;2023-12-20T13:55:57;5.90;99.90
46139;DHT22;32398;49.112;8.598;2023-12-20T13:58:25;5.90;99.90
46139;DHT22;32398;49.112;8.598;2023-12-20T14:00:51;5.90;99.90
46139;DHT22;32398;49.112;8.598;2023-12-20T14:03:19;5.90;99.90
46139;DHT22;32398;49.112;8.598;2023-12-20T14:05:46;5.90;99.90
46139;DHT22;32398;49.112;8.598;2023-12-20T14:08:12;5.90;99.90
46139;DHT22;32398;49.112;8.598;2023-12-20T14:10:39;5.90;99.90
46139;DHT22;32398;49.112;8.598;2023-12-20T14:13:05;5.80;99.90
46139;DHT22;32398;49.112;8.598;2023-12-20T14:15:32;5.90;99.90
46139;DHT22;32398;49.112;8.598;2023-12-20T14:18:02;5.90;99.90
46139;DHT22;32398;49.112;8.598;2023-12-20T14:20:31;5.90;99.90
46139;DHT22;32398;49.112;8.598;2023-12-20T14:22:59;5.90;99.90
46139;DHT22;32398;49.112;8.598;2023-12-20T14:25:26;5.90;99.90
46139;DHT22;32398;49.112;8.598;2023-12-20T14:27:52;5.90;99.90
46139;DHT22;32398;49.112;8.598;2023-12-20T14:30:19;5.90;99.90
46139;DHT22;32398;49.112;8.598;2023-12-20T14:32:45;5.90;99.90
46139;DHT22;32398;49.112;8.598;2023-12-20T14:35:13;5.90;99.90
46139;DHT22;32398;49.112;8.598;2023-12-20T14:37:41;5.90;99.90
46139;DHT22;32398;49.112;8.598;2023-12-20T14:40:08;5.90;99.90
46139;DHT22;32398;49.112;8.598;2023-12-20T14:42:40;5.80;99.90
46139;DHT22;32398;49.112;8.598;2023-12-20T14:45:06;5.90;99.90
46139;DHT22;32398;49.112;8.598;2023-12-20T14:47:33;5.90;99.90
46139;DHT22;32398;49.112;8.598;2023-12-20T14:50:01;5.90;99.90
46139;DHT22;32398;49.112;8.598;2023-12-20T14:52:28;5.90;99.90
46139;DHT22;32398;49.112;8.598;2023-12-20T14:54:56;5.90;99.90
46139;DHT22;32398;49.112;8.598;2023-12-20T14:57:22;5.80;99.90
46139;DHT22;32398;49.112;8.598;2023-12-20T14:59:49;5.90;99.90
46139;DHT22;32398;49.112;8.598;2023-12-20T15:02:15;5.90;99.90
46139;DHT22;32398;49.112;8.598;2023-12-20T15:04:43;5.90;99.90
46139;DHT22;32398;49.112;8.598;2023-12-20T15:07:10;5.80;99.90
46139;DHT22;32398;49.112;8.598;2023-12-20T15:09:36;7.00;99.90
46139;DHT22;32398;49.112;8.598;2023-12-20T15:12:05;5.80;99.90
46139;DHT22;32398;49.112;8.598;2023-12-20T15:14:31;5.80;99.90
46139;DHT22;32398;49.112;8.598;2023-12-20T15:16:58;5.80;99.90
46139;DHT22;32398;49.112;8.598;2023-12-20T15:19:24;5.80;99.90
46139;DHT22;32398;49.112;8.598;2023-12-20T15:21:51;5.80;99.90
46139;DHT22;32398;49.112;8.598;2023-12-20T15:24:17;5.80;99.90
46139;DHT22;32398;49.112;8.598;2023-12-20T15:26:51;5.80;99.90
46139;DHT22;32398;49.112;8.598;2023-12-20T15:29:20;5.80;99.90
46139;DHT22;32398;49.112;8.598;2023-12-20T15:31:46;5.80;99.90
46139;DHT22;32398;49.112;8.598;2023-12-20T15:34:13;5.80;99.90
46139;DHT22;32398;49.112;8.598;2023-12-20T15:36:40;5.70;99.90
46139;DHT22;32398;49.112;8.598;2023-12-20T15:39:08;5.80;99.90
46139;DHT22;32398;49.112;8.598;2023-12-20T15:41:35;5.80;99.90
46139;DHT22;32398;49.112;8.598;2023-12-20T15:44:01;5.70;99.90